Timeline UpdatesTrip UpdatesNews PostsPvt PostsTravel TipsAdmin PostsConv PostsFollowed PostsChat RequestsBlog PostsPNR Posts

Disclaimer
Search
 
 
Sat Aug 30, 2014 09:42:00 ISTHomeTrainsΣChainsAtlasPNRForumGalleryNewsFAQTripsMembersLoginFeedback
No Recent News for this Train
Other Trains in the News **new
Latest...
Cancelled upto 31/1/4 #978882
Thu Jan 30, 2014 (07:21PM)
⇐ Return Journey: Train# 55223

55536⇒55224/Darbhanga-Katihar Passenger (UnReserved)

Sep 25 2013 (10:36PM)
Change Departure Station:
Change Arrival Station:
Post a Train Travel TipPost a Train Travel Tip **new
Post a Comment/Question/Picture/VideoPost a Comment/Question/Picture/Video
Pantry/Catering
✕ NO Pantry Car
✕ NO Catering
RSA - Rake Sharing
Rake/Coach Composition
Loco
News    PNR    Forum    Time-Table    Availability    Fare Chart    Map    Arr/Dep History    Trips    Gallery    ΣChains    X/O    Timeline    
Travel Time: 3h 18m    15 halts    Distance: 124 km    Avg Speed: 37 km/hr
Type: Passenger
Zone: ECR/East Central
Departs @ 09:47 (Avg 36m late)
Platform# ???
SMTWTFS
Khagaria Junction/KGG 
Arrives @ 13:05 (Avg 1h 24m late)
Platform# 7
SMTWTFS
Katihar Junction/KIR 

15 halts. 18 intermediate Stations between Khagaria Junction and Katihar Junction

Show ALL intermediate Stations  Show Old Time-Table

#CodeStation NameX/OArrivesAvgDepartsAvgHaltPFDay#KmSpeedElevZoneAddress
1DBGDarbhanga Junction (5)  -03:15+12--1-141.23854mECRDarbhanga, Bihar
2LSILaheria Sarai (1)X  03:23+2703:28+335m11-136.25352mECRDarbhanga, Bihar
3TLWAThalwara  03:33+3703:35+382m--1-131.84556mECRDarbhanga, Bihar
4HYTHaiaghat  03:43+3803:45+432m--1-125.83451mECRDarbhanga, Bihar
5RBZRambhaddarpurX  03:54+4303:56+442m--1-120.75751mECRSamastipur, Bihar
6KSPKishanpur  04:03+4904:05+532m--1-114.05451mECRSamastipur, Bihar
7MKPRMuktapur (1)  04:12+5504:14+1:072m11-107.8653mECRSamastipur, Bihar
8SPJSamastipur Junction (9)XO  04:55+2505:45+1550m--1-103.83955mECRSamastipur, Bihar
9UJPUjiarpur (2)  05:59+2906:01+292m--1-94.75451mECRSamastipur, Bihar
10NAZJNazirGanj (2)  06:08+2906:10+292m--1-88.43651mECRNazirGanj, Bihar
11DSSDalsingh Sarai (2)X  06:23+2706:25+272m21-80.639 ECR06278-221238, Bihar
12STJTSathajagat (2)X  06:32+3406:34+342m--1-76.02049mECRSathajagat, Bihar
13BCABachwara Junction (3)X  06:53+2506:55+392m--1-69.61849mECRBegusarai, Bihar
14TGATeghra (3)XO  07:24+2507:26+402m--1-60.72048mECRBegusarai, Bihar
15BUJBarauni Flag (2)  07:40-07:41-1m--1-56.01849mECRDistt: Begusarai, Bihar
16BJUBarauni Junction (9)  07:50+2508:05+3015m21-53.32549mECRBegusarai, Bihar
17BEHTBihat Halt (2)  08:12-08:13-1m--1-50.44446mECRBihat Halt, Bihar
18TILTilrath (2)  08:18+3908:20+392m--1-46.73146mECRNH 31, Bihar
19BGSBegusarai (3)X  08:33+3808:35+512m--1-39.95646mECRBegusarai, Bihar
20LAKLakho (1)  08:43+4008:45+402m11-32.53844mECRLakho, Bihar
21DPLDanauli Phulwaria (3)X  08:53+4808:55+1:122m--1-27.44042mECRDanauli Phlwria, Bihar
22LKNLakhminia (3)X  09:03+3909:05+412m--1-22.16545mECRBegusarai, Bihar
23SKJSahibpur Kamal Junction (2)X  09:14+4209:16+442m--1-12.43341mECRShahpur Kamal, Bihar
24UMNRUmeshnagar (3)  09:26+4409:28+432m--1-6.82941mECRNational Highway 31, Bihar
25KGG»Khagaria Junction (3)»X  09:42+3509:47+365m--10.04843mECRKhagaria, Bihar
26MNEMansi Junction (4)  09:58+4910:00+512m--18.85743mECRMansi, Bihar
27CDBNChedhabanni Halt (2)X  10:05-10:06-1m--113.66842mECRChedhabanni, Bihar
28MSKMahes Khunt (2)  10:11+5810:13+1:152m--119.24037mECRMaheshkhunt, Bihar
29GAIGauchhari (3)  10:19+1:4110:21+1:462m--123.36240mECRGauchhari, Bihar
30PSRPasraha (3)X  10:29+1:5210:31+2:162m--131.64241mECRPasraha, Bihar
31BRKBBharat Khand (1)X  10:40-10:41-1m1137.84634mECRBharat Khand, Bihar
32NNRNarayanpur (2)X  10:48+2:1110:50+2:112m--143.24639mECRNarayanpur, Bihar
33THBThana Bihpur Junction (3)  11:00+2:2011:02+2:202m--150.88039mECRThana Bihpur, Bihar
34KHQKharik (3)  11:08+2:2411:10+2:362m--158.85938mECRKharik, Bihar
35NNANaugachia (3)X  11:18+2:0011:20+2:002m1166.77437mECRBhagalpur, Bihar
36KTRHKatareah  11:29+2:4211:31+2:482m--177.8500mECRKumadpur, Bihar
37KUEKursela  11:40+2:5211:43+2:513m--185.28631mECRNH 31, Bihar
38BKHRBakhri  11:51+2:1211:53+2:192m--196.83335mECRBakhri, Bihar
39CRRKaragola RoadX  12:03+3:1012:05+3:172m--1102.25036mECRLachhmipur, Bihar
40SMOSemapur  12:18+3:1612:20+3:162m--1112.91535mECRKatihar, Bihar
41KIR•Katihar Junction (7)•  13:05+1:24-71124.5-35mNFRKatihar 854105, Bihar
Scroll to Top
Scroll to Bottom